Other Surface Observations
Issued by NWS

Home | Current Version | Previous Version | Text Only | Print | Product List | Glossary On
Versions: 1 2 3 4 5 6 7 8 9 10 11 12 13 14 15 16 17 18 19 20 21 22 23 24 25 26 27 28 29 30 31 32 33 34 35 36 37 38 39 40 41 42 43 44 45 46 47 48 49 50
554
SXPA56 KWBC 250459
OSOHW
:SHEF ENCODED 6-MINUTE NOS MET DATA
:NATIONAL WATER LEVEL OBSERVATION NETWORK (NWLON)
:TA(AIR TEMP DEG F)  SLP(SEA LEVEL PRESSURE INCHES)
:UD(WIND DIRECTION WHOLE DEGREES) US (WIND SPEED MPH)
:TW(WATER TEMP DEG F) UG(WIND GUSTS MPH) WC(CONDUCTIVITY uMHOS/CM)
:-9999 (MISSING VALUES)
:PROVIDED BY DOC/NOAA/NOS/CO-OPS, (301) 713-2540
:corms@noaa.gov
.E NWWH1 20190825 Z DH0418/TAIRG/DIN06/-9999/-9999/   82/-9999/   81
.E NWWH1 20190825 Z DH0418/PLIRG/DIN06/-9999/-9999/29.97/-9999/29.98
.E NWWH1 20190825 Z DH0418/USIRG/DIN06/-9999/-9999/   15/-9999/   10
.E NWWH1 20190825 Z DH0418/UDIRG/DIN06/-9999/-9999/   57/-9999/   54
.E NWWH1 20190825 Z DH0418/UGIRG/DIN06/-9999/-9999/   20/-9999/   15
.E NWWH1 20190825 Z DH0418/TWIRG/DIN06/   86/   86/   86/   86/-9999
.E OOUH1 20190825 Z DH0430/TAIRG/DIN06/   83/-9999/   82
.E OOUH1 20190825 Z DH0430/PLIRG/DIN06/29.95/-9999/29.95
.E OOUH1 20190825 Z DH0430/USIRG/DIN06/    8/-9999/    6
.E OOUH1 20190825 Z DH0430/UDIRG/DIN06/   62/-9999/   72
.E OOUH1 20190825 Z DH0430/UGIRG/DIN06/   19/-9999/   17
.E OOUH1 20190825 Z DH0430/TWIRG/DIN06/   83/-9999/   83
.E MOKH1 20190825 Z DH0430/TAIRG/DIN06/   82/-9999/   82
.E MOKH1 20190825 Z DH0430/PLIRG/DIN06/29.97/-9999/29.97
.E MOKH1 20190825 Z DH0430/USIRG/DIN06/   15/-9999/   12
.E MOKH1 20190825 Z DH0430/UDIRG/DIN06/   86/-9999/   90
.E MOKH1 20190825 Z DH0430/UGIRG/DIN06/   19/-9999/   17
.E MOKH1 20190825 Z DH0430/TWIRG/DIN06/   85/-9999/   85
.E KLIH1 20190825 Z DH0430/TAIRG/DIN06/   81/   81/   81
.E KLIH1 20190825 Z DH0430/PLIRG/DIN06/29.92/29.92/29.92
.E KLIH1 20190825 Z DH0430/USIRG/DIN06/   21/   17/   21
.E KLIH1 20190825 Z DH0430/UDIRG/DIN06/   60/   61/   66
.E KLIH1 20190825 Z DH0430/UGIRG/DIN06/   26/   25/   28
.A KWHH1 20190825 Z DH0412/TAIRP    83/UGIRP     8/PLIRP 29.90/UDIRP   294/USIRP     6/TWIRP    84/WCIRP -9999
.E KWHH1 20190825 Z DH0430/TAIRG/DIN06/   84/   84/   84
.E KWHH1 20190825 Z DH0430/PLIRG/DIN06/29.91/29.91/29.91
.E KWHH1 20190825 Z DH0430/USIRG/DIN06/    8/    8/    9
.E KWHH1 20190825 Z DH0430/UDIRG/DIN06/  296/  287/  284
.E KWHH1 20190825 Z DH0430/UGIRG/DIN06/   12/   10/   11
.E KWHH1 20190825 Z DH0430/TWIRG/DIN06/   84/   84/   84
.E ILOH1 20190825 Z DH0436/TAIRG/DIN06/   80/   80/   80
.E ILOH1 20190825 Z DH0436/PLIRG/DIN06/29.96/29.97/29.97
.E ILOH1 20190825 Z DH0436/USIRG/DIN06/    3/    2/    2
.E ILOH1 20190825 Z DH0436/UDIRG/DIN06/   53/   76/   27
.E ILOH1 20190825 Z DH0436/UGIRG/DIN06/    5/    4/    3
.E ILOH1 20190825 Z DH0436/TWIRG/DIN06/   82/   82/   82
.E SNDP5 20190825 Z DH0436/TAIRG/DIN06/   84/   84
.E SNDP5 20190825 Z DH0436/PLIRG/DIN06/29.97/29.97
.E SNDP5 20190825 Z DH0436/TWIRG/DIN06/   85/   85
.E APRP7 20190825 Z DH0436/TAIRG/DIN06/   87/   88
.E APRP7 20190825 Z DH0436/PLIRG/DIN06/29.74/29.74
.E APRP7 20190825 Z DH0436/USIRG/DIN06/   11/    8
.E APRP7 20190825 Z DH0436/UDIRG/DIN06/  161/  145
.E APRP7 20190825 Z DH0436/UGIRG/DIN06/   17/   15
.E APRP7 20190825 Z DH0436/TWIRG/DIN06/   85/   85
.E PGBP7 20190825 Z DH0436/PLIRG/DIN06/29.76/29.76/29.76
.E PGBP7 20190825 Z DH0436/USIRG/DIN06/   11/   12/   11
.E PGBP7 20190825 Z DH0436/UDIRG/DIN06/  160/  154/  153
.E PGBP7 20190825 Z DH0436/UGIRG/DIN06/   16/   15/   14
.E NSTP6 20190825 Z DH0436/TAIRG/DIN06/   82/   82
.E NSTP6 20190825 Z DH0436/PLIRG/DIN06/29.86/29.86
.E NSTP6 20190825 Z DH0436/USIRG/DIN06/    5/    5
.E NSTP6 20190825 Z DH0436/UDIRG/DIN06/  205/  195
.E NSTP6 20190825 Z DH0436/UGIRG/DIN06/    7/    9
.E NSTP6 20190825 Z DH0436/TWIRG/DIN06/   83/   83
.E KWJP8 20190825 Z DH0436/PLIRG/DIN06/29.75/29.75/29.75
.E KWJP8 20190825 Z DH0436/TWIRG/DIN06/   86/   86/   86
.E WAKP8 20190825 Z DH0430/TAIRG/DIN06/   86/-9999/   86
.E WAKP8 20190825 Z DH0430/PLIRG/DIN06/29.91/-9999/29.91
.E WAKP8 20190825 Z DH0430/USIRG/DIN06/   12/-9999/   12
.E WAKP8 20190825 Z DH0430/UDIRG/DIN06/   68/-9999/   74
.E WAKP8 20190825 Z DH0430/UGIRG/DIN06/   16/-9999/   18
.E WAKP8 20190825 Z DH0430/TWIRG/DIN06/   93/-9999/   93



USA.gov is the U.S. government's official web portal to all federal, state and local government web resources and services.